Time;durP1;ratioP1;P1;durP2;ratioP2;P2;SDS_P1;SDS_P2;PMS_P1;PMS_P2;Temp;Humidity;BMP_temperature;BMP_pressure;BME280_temperature;BME280_humidity;BME280_pressure;Samples;Min_cycle;Max_cycle;Signal;HPM_P1;HPM_P2
2021/04/15 00:00:45;;;;;;;5.10;1.85;;;;;;;24.91;38.67;100019.91;4484333;32;33586;-53
2021/04/15 00:03:17;;;;;;;5.05;1.35;;;;;;;24.99;38.50;100018.72;4483911;32;33657;-51
2021/04/15 00:05:45;;;;;;;7.30;1.70;;;;;;;25.06;38.33;100020.31;4484333;32;33196;-50
2021/04/15 00:08:13;;;;;;;11.38;1.65;;;;;;;25.10;38.22;100010.63;4484651;32;33856;-53
2021/04/15 00:10:42;;;;;;;4.65;1.27;;;;;;;25.13;38.16;100007.44;4484156;32;33680;-50
2021/04/15 00:13:16;;;;;;;7.45;1.60;;;;;;;25.16;38.11;100006.94;4484296;32;34391;-50
2021/04/15 00:15:44;;;;;;;5.72;1.50;;;;;;;25.18;38.06;100002.09;4482552;32;33288;-56
2021/04/15 00:18:11;;;;;;;5.53;1.60;;;;;;;25.20;37.98;100007.31;4484222;32;34664;-56
2021/04/15 00:20:38;;;;;;;7.37;1.40;;;;;;;25.19;37.96;99998.31;4474079;32;34030;-52
2021/04/15 00:23:06;;;;;;;8.00;1.58;;;;;;;25.19;37.94;99997.47;4481904;32;33793;-59
2021/04/15 00:25:32;;;;;;;9.95;1.80;;;;;;;25.17;37.97;99999.59;4483909;32;33069;-56
2021/04/15 00:28:00;;;;;;;6.95;1.62;;;;;;;25.16;37.92;99995.19;4484155;32;33722;-59
2021/04/15 00:30:27;;;;;;;6.32;1.58;;;;;;;25.15;37.92;99988.06;4484249;32;33487;-59
2021/04/15 00:32:54;;;;;;;8.48;1.55;;;;;;;25.12;37.93;99989.38;4484057;32;33741;-57
2021/04/15 00:35:21;;;;;;;5.95;1.70;;;;;;;25.10;37.95;99991.50;4484035;32;33381;-56
2021/04/15 00:37:49;;;;;;;4.20;1.42;;;;;;;25.07;38.01;99989.22;4484207;32;34470;-51
2021/04/15 00:40:18;;;;;;;9.43;2.20;;;;;;;25.05;38.12;99990.50;4483920;32;33578;-58
2021/04/15 00:42:45;;;;;;;4.80;1.40;;;;;;;25.01;38.17;100001.06;4484161;32;33759;-59
2021/04/15 00:45:18;;;;;;;7.05;1.80;;;;;;;24.99;38.16;99994.97;4484063;32;33325;-59
2021/04/15 00:47:49;;;;;;;6.60;1.62;;;;;;;24.97;38.20;99996.28;4484087;32;33758;-59
2021/04/15 00:50:27;;;;;;;8.98;1.42;;;;;;;24.94;38.32;99989.38;4470169;32;33518;-59
2021/04/15 00:52:56;;;;;;;3.83;1.67;;;;;;;24.93;38.46;99993.19;4483780;32;33691;-57
2021/04/15 00:55:24;;;;;;;4.45;1.15;;;;;;;24.87;38.62;99994.97;4469906;32;33391;-58
2021/04/15 00:57:51;;;;;;;6.53;1.30;;;;;;;24.84;38.65;99995.41;4469855;32;34824;-56
2021/04/15 01:00:22;;;;;;;4.00;1.35;;;;;;;24.82;38.65;99996.72;4482660;32;33718;-58
2021/04/15 01:02:50;;;;;;;5.68;1.37;;;;;;;24.80;38.67;100005.12;4483100;32;33767;-59
2021/04/15 01:05:25;;;;;;;7.93;1.33;;;;;;;24.78;38.68;100001.78;4483554;32;33306;-58
2021/04/15 01:07:52;;;;;;;4.28;1.40;;;;;;;24.79;38.74;100005.34;4483935;32;34587;-59
2021/04/15 01:10:20;;;;;;;10.35;1.87;;;;;;;24.71;38.93;99995.59;4483638;32;34821;-60
2021/04/15 01:13:05;;;;;;;6.53;1.65;;;;;;;24.65;39.10;99994.63;4482337;32;33662;-58
2021/04/15 01:15:55;;;;;;;7.03;1.70;;;;;;;24.63;39.08;99998.66;4483759;32;33376;-57
2021/04/15 01:18:28;;;;;;;5.95;1.67;;;;;;;24.58;39.22;99987.59;4482691;32;34817;-57
2021/04/15 01:21:17;;;;;;;7.50;1.55;;;;;;;24.56;39.18;99984.25;4482556;32;33859;-58
2021/04/15 01:23:56;;;;;;;7.00;1.40;;;;;;;24.53;39.34;99991.00;4482773;32;34470;-53
2021/04/15 01:27:09;;;;;;;8.70;1.60;;;;;;;24.49;39.40;99987.06;4483584;32;33164;-57
2021/04/15 01:30:03;;;;;;;5.62;1.20;;;;;;;24.49;39.43;99976.16;4483589;32;34381;-59
2021/04/15 01:32:56;;;;;;;7.55;1.45;;;;;;;24.43;39.40;99983.38;4483633;32;33917;-59
2021/04/15 01:35:27;;;;;;;6.32;1.83;;;;;;;24.39;39.54;99973.97;4482372;32;33769;-59
2021/04/15 01:38:08;;;;;;;7.90;1.95;;;;;;;24.34;39.59;99976.53;4469507;32;33192;-58
2021/04/15 01:40:51;;;;;;;5.37;1.60;;;;;;;24.33;39.61;99979.47;4482359;32;33743;-59
2021/04/15 01:43:35;;;;;;;6.57;1.60;;;;;;;24.33;39.60;99974.00;4469534;32;33985;-58
2021/04/15 01:46:03;;;;;;;8.43;1.20;;;;;;;24.31;39.57;99967.97;4469581;32;33665;-58
2021/04/15 01:48:39;;;;;;;6.05;1.30;;;;;;;24.25;39.58;99967.00;4469184;32;33263;-57
2021/04/15 01:51:09;;;;;;;5.22;1.23;;;;;;;24.24;39.67;99967.19;4469726;32;33802;-59
2021/04/15 01:54:09;;;;;;;6.43;1.58;;;;;;;24.22;39.67;99969.34;4469370;32;34775;-58
2021/04/15 01:57:01;;;;;;;5.55;1.42;;;;;;;24.21;39.70;99967.66;4453726;31;33434;-58
2021/04/15 01:59:34;;;;;;;6.03;1.60;;;;;;;24.19;39.69;99965.16;4482179;32;33260;-58
2021/04/15 02:02:04;;;;;;;8.68;1.48;;;;;;;24.14;39.75;99968.56;4469082;32;33513;-56
2021/04/15 02:04:40;;;;;;;8.38;1.45;;;;;;;24.13;39.73;99966.06;4469165;32;33693;-59
2021/04/15 02:07:10;;;;;;;9.32;1.40;;;;;;;24.11;39.78;99966.31;4469217;32;33713;-59
2021/04/15 02:09:37;;;;;;;;;;;;;;;24.10;39.75;99958.34;4483309;32;34111;-55
2021/04/15 02:12:10;;;;;;;6.95;1.30;;;;;;;24.19;39.60;99962.44;4483105;32;34179;-57
2021/04/15 02:14:37;;;;;;;7.37;1.42;;;;;;;24.08;39.83;99963.19;4483446;32;34816;-59
2021/04/15 02:17:05;;;;;;;4.80;1.40;;;;;;;24.06;39.84;99968.03;4483365;32;34358;-51
2021/04/15 02:19:42;;;;;;;3.40;1.30;;;;;;;24.03;39.88;99982.94;4470945;32;33255;-57
2021/04/15 02:22:35;;;;;;;4.00;1.17;;;;;;;24.01;39.89;99967.88;4484016;32;33725;-57
2021/04/15 02:25:10;;;;;;;8.43;1.65;;;;;;;24.01;39.83;99967.88;4485104;32;34782;-59
2021/04/15 02:28:01;;;;;;;5.93;1.25;;;;;;;23.97;39.95;99961.19;4483755;32;33934;-57
2021/04/15 02:31:00;;;;;;;6.00;1.60;;;;;;;23.98;39.91;99965.63;4484903;32;33246;-57
2021/04/15 02:33:48;;;;;;;8.00;1.65;;;;;;;23.96;39.96;99967.72;4485082;32;33752;-59
2021/04/15 02:36:15;;;;;;;7.43;1.35;;;;;;;23.91;40.03;99961.06;4483625;32;33568;-54
2021/04/15 02:39:03;;;;;;;7.53;1.33;;;;;;;23.90;40.02;99964.84;4485055;32;34743;-59
2021/04/15 02:41:32;;;;;;;6.37;1.33;;;;;;;23.91;40.02;99965.66;4483862;32;33888;-57
2021/04/15 02:44:10;;;;;;;9.10;1.50;;;;;;;23.88;40.04;99969.69;4470989;32;33961;-59
2021/04/15 02:46:57;;;;;;;13.05;1.73;;;;;;;23.88;40.04;99968.88;4471386;32;34548;-57
2021/04/15 02:49:26;;;;;;;5.45;1.30;;;;;;;23.88;40.01;99963.41;4471960;32;33520;-57
2021/04/15 02:52:05;;;;;;;6.90;1.17;;;;;;;23.85;39.98;99964.69;4483411;32;33141;-58
2021/04/15 02:54:38;;;;;;;4.77;0.97;;;;;;;23.84;40.04;99968.47;4470965;32;33724;-57
2021/04/15 02:57:08;;;;;;;3.25;1.17;;;;;;;23.83;40.01;99971.44;4470650;32;33622;-59
2021/04/15 02:59:40;;;;;;;;;;;;;;;23.81;40.08;99965.38;4485165;32;34404;-56
2021/04/15 03:02:08;;;;;;;6.75;1.75;;;;;;;23.89;39.87;99965.91;4483503;32;34135;-56
2021/04/15 03:04:37;;;;;;;3.65;1.33;;;;;;;23.80;39.97;99975.44;4483426;32;33929;-57
2021/04/15 03:07:04;;;;;;;10.38;1.40;;;;;;;23.78;40.05;99971.25;4470993;32;33851;-56
2021/04/15 03:09:33;;;;;;;2.78;1.02;;;;;;;23.75;40.04;99969.00;4470225;32;33635;-57
2021/04/15 03:12:26;;;;;;;5.62;1.58;;;;;;;23.73;40.11;99963.75;4470776;32;33029;-59
2021/04/15 03:14:54;;;;;;;4.10;1.42;;;;;;;23.74;40.10;99970.87;4447484;32;33700;-55
2021/04/15 03:17:22;;;;;;;5.72;1.33;;;;;;;23.71;40.08;99973.22;4483558;32;34720;-53
2021/04/15 03:19:56;;;;;;;7.47;1.55;;;;;;;23.71;40.14;99973.22;4483521;32;33778;-58
2021/04/15 03:22:28;;;;;;;4.90;1.20;;;;;;;23.70;40.18;99968.84;4483418;32;34528;-57
2021/04/15 03:24:56;;;;;;;10.25;1.50;;;;;;;23.67;40.18;99970.09;4469894;32;33773;-57
2021/04/15 03:28:02;;;;;;;4.55;1.05;;;;;;;23.66;40.21;99974.72;4483278;32;33950;-59
2021/04/15 03:30:51;;;;;;;6.22;1.37;;;;;;;23.67;40.20;99981.84;4483402;32;35683;-58
2021/04/15 03:33:18;;;;;;;8.37;1.43;;;;;;;23.65;40.33;99974.97;4459385;32;33217;-59
2021/04/15 03:36:13;;;;;;;6.45;1.23;;;;;;;23.63;40.24;99971.56;4484445;32;33800;-59
2021/04/15 03:38:46;;;;;;;6.47;1.30;;;;;;;23.63;40.20;99971.56;4449625;32;33757;-55
2021/04/15 03:41:37;;;;;;;13.35;2.17;;;;;;;23.60;40.22;99975.59;4470476;32;33711;-59
2021/04/15 03:44:15;;;;;;;4.10;1.33;;;;;;;23.60;40.23;99974.75;4483348;32;33126;-56
2021/04/15 03:46:45;;;;;;;5.00;1.10;;;;;;;23.59;40.29;99970.34;4484847;32;33699;-55
2021/04/15 03:49:19;;;;;;;9.23;1.58;;;;;;;23.56;40.35;99976.25;4470556;32;34757;-57
2021/04/15 03:51:48;;;;;;;4.37;1.10;;;;;;;23.56;40.32;99976.25;4482949;31;33673;-57
2021/04/15 03:54:17;;;;;;;4.72;1.50;;;;;;;23.55;40.30;99972.72;4467509;32;33844;-57
2021/04/15 03:56:55;;;;;;;7.43;1.23;;;;;;;23.54;40.28;99973.75;4467601;32;33893;-57
2021/04/15 03:59:48;;;;;;;4.35;1.05;;;;;;;23.55;40.33;99978.16;4470839;32;33548;-58
2021/04/15 04:02:19;;;;;;;5.80;1.30;;;;;;;23.55;40.27;99972.72;4471486;32;33444;-55
2021/04/15 04:04:50;;;;;;;4.95;1.10;;;;;;;23.51;40.30;99976.09;4483185;32;34009;-56
2021/04/15 04:07:19;;;;;;;5.72;1.12;;;;;;;23.50;40.29;99975.28;4484403;32;33778;-59
2021/04/15 04:09:59;;;;;;;5.35;1.12;;;;;;;23.49;40.30;99965.41;4483234;32;34585;-57
2021/04/15 04:12:32;;;;;;;3.37;1.10;;;;;;;23.50;40.32;99972.56;4483094;32;34685;-58
2021/04/15 04:15:07;;;;;;;7.68;1.30;;;;;;;23.50;40.33;99977.13;4470295;32;33343;-59
2021/04/15 04:17:58;;;;;;;6.87;1.42;;;;;;;23.50;40.31;99985.31;4470062;32;33860;-57
2021/04/15 04:20:30;;;;;;;3.85;1.30;;;;;;;23.46;40.34;99979.50;4475281;32;34492;-58
2021/04/15 04:22:59;;;;;;;3.87;1.10;;;;;;;23.45;40.29;99979.69;4483107;32;34427;-58
2021/04/15 04:25:34;;;;;;;3.40;0.97;;;;;;;23.45;40.41;99987.88;4470003;32;33241;-55
2021/04/15 04:28:21;;;;;;;6.20;1.33;;;;;;;23.46;40.42;99997.72;4483020;32;33849;-55
2021/04/15 04:30:53;;;;;;;9.98;1.83;;;;;;;23.45;40.36;99982.41;4482854;32;34623;-55
2021/04/15 04:33:23;;;;;;;5.40;1.15;;;;;;;23.41;40.41;99987.50;4482902;32;33766;-58
2021/04/15 04:35:51;;;;;;;6.85;1.42;;;;;;;23.39;40.39;99990.41;4470122;32;34020;-58
2021/04/15 04:38:20;;;;;;;4.25;1.40;;;;;;;23.40;40.51;99989.34;4468803;32;34795;-58
2021/04/15 04:40:53;;;;;;;4.60;1.20;;;;;;;23.39;40.49;99986.88;4482890;32;34511;-58
2021/04/15 04:43:21;;;;;;;6.80;1.65;;;;;;;23.39;40.44;99993.16;4482721;32;33802;-55
2021/04/15 04:45:48;;;;;;;3.78;1.23;;;;;;;23.39;40.47;99997.75;4484306;32;33309;-59
2021/04/15 04:48:28;;;;;;;4.60;1.10;;;;;;;23.37;40.42;99997.16;4484184;32;33929;-58
2021/04/15 04:51:04;;;;;;;5.93;1.30;;;;;;;23.37;40.43;100000.72;4483980;32;33857;-57
2021/04/15 04:53:38;;;;;;;3.90;1.10;;;;;;;23.37;40.43;100008.06;4470128;32;34352;-57
2021/04/15 04:56:25;;;;;;;5.12;1.33;;;;;;;23.35;40.51;100007.41;4470181;32;34335;-56
2021/04/15 04:58:57;;;;;;;3.28;1.27;;;;;;;23.36;40.45;100007.22;4462444;32;34490;-49
2021/04/15 05:01:25;;;;;;;6.40;1.80;;;;;;;23.33;40.48;100009.53;4454803;32;34521;-54
2021/04/15 05:04:02;;;;;;;4.62;1.60;;;;;;;23.33;40.53;100006.81;4468100;32;33911;-52
2021/04/15 05:06:30;;;;;;;4.10;1.12;;;;;;;23.34;40.48;100008.47;4461155;32;33208;-55
2021/04/15 05:09:25;;;;;;;3.65;1.20;;;;;;;23.32;40.55;100010.59;4480994;31;34024;-48
2021/04/15 05:11:52;;;;;;;13.32;1.37;;;;;;;23.33;40.51;100002.22;4482427;32;33818;-50
2021/04/15 05:14:21;;;;;;;5.10;1.00;;;;;;;23.29;40.59;99998.25;4469516;32;33709;-50
2021/04/15 05:16:50;;;;;;;5.03;1.75;;;;;;;23.29;40.57;100000.16;4464811;32;33131;-51
2021/04/15 05:19:18;;;;;;;6.00;1.30;;;;;;;23.27;40.59;99999.50;4467178;32;34862;-50
2021/04/15 05:21:46;;;;;;;6.00;1.30;;;;;;;23.29;40.62;99997.44;4466808;32;35103;-51
2021/04/15 05:24:23;;;;;;;4.37;1.20;;;;;;;23.26;40.59;99995.97;4456063;32;34163;-48
2021/04/15 05:26:51;;;;;;;5.40;1.10;;;;;;;23.27;40.71;100000.37;4483578;32;33238;-49
2021/04/15 05:29:22;;;;;;;13.27;1.42;;;;;;;23.27;40.64;99994.94;4469509;32;33830;-51
2021/04/15 05:31:51;;;;;;;10.73;1.90;;;;;;;23.27;40.52;100000.37;4469519;32;33800;-50
2021/04/15 05:34:21;;;;;;;8.95;2.05;;;;;;;23.26;40.05;99997.84;4468609;32;33918;-49
2021/04/15 05:36:49;;;;;;;9.95;1.90;;;;;;;23.24;39.79;99997.25;4483618;32;32895;-50
2021/04/15 05:39:17;;;;;;;13.40;1.92;;;;;;;23.25;39.03;99999.75;4469476;32;34377;-49
2021/04/15 05:41:53;;;;;;;8.05;1.85;;;;;;;23.26;38.92;100001.41;4482046;32;33978;-50
2021/04/15 05:44:38;;;;;;;9.73;1.87;;;;;;;23.36;38.65;100006.34;4483301;32;33632;-53
2021/04/15 05:47:14;;;;;;;7.62;1.70;;;;;;;23.48;38.10;100009.22;4457606;32;32768;-54
2021/04/15 05:49:46;;;;;;;8.95;1.90;;;;;;;23.61;37.81;99998.22;4454384;32;34540;-55
2021/04/15 05:52:33;;;;;;;8.68;1.80;;;;;;;23.78;37.62;100003.94;4475897;32;33746;-51
2021/04/15 05:55:06;;;;;;;8.00;2.05;;;;;;;23.97;37.54;100005.66;4480782;32;33663;-53
2021/04/15 05:57:36;;;;;;;12.57;3.70;;;;;;;24.11;37.49;100007.19;4481522;32;33182;-52
2021/04/15 06:00:17;;;;;;;7.93;1.65;;;;;;;24.27;37.46;99994.03;4481221;32;33630;-51
2021/04/15 06:02:50;;;;;;;7.68;1.73;;;;;;;24.45;37.35;99990.50;4470160;32;33834;-55
2021/04/15 06:05:33;;;;;;;5.68;1.67;;;;;;;24.60;37.27;99993.63;4480969;32;34303;-53
2021/04/15 06:08:02;;;;;;;7.78;1.60;;;;;;;24.79;37.19;99998.00;4480700;32;33362;-52
2021/04/15 06:10:37;;;;;;;5.82;1.77;;;;;;;24.93;37.10;99993.19;4481243;32;34897;-53
2021/04/15 06:13:43;;;;;;;7.70;2.00;;;;;;;25.07;37.00;99991.09;4469411;32;33790;-55
2021/04/15 06:16:15;;;;;;;5.82;1.62;;;;;;;25.21;36.90;99995.31;4481332;32;33762;-52
2021/04/15 06:19:03;;;;;;;9.95;2.08;;;;;;;25.28;36.89;99992.50;4468442;32;34283;-53
2021/04/15 06:21:33;;;;;;;5.78;1.60;;;;;;;25.37;36.91;99983.75;4477756;32;33809;-53
2021/04/15 06:24:07;;;;;;;5.12;1.65;;;;;;;25.40;36.91;99996.06;4468691;32;34629;-51
2021/04/15 06:26:48;;;;;;;6.00;1.50;;;;;;;25.43;36.94;99993.72;4481252;32;33891;-52
2021/04/15 06:29:56;;;;;;;7.18;1.62;;;;;;;25.49;36.94;99985.66;4467434;32;33213;-54
2021/04/15 06:32:33;;;;;;;7.50;1.40;;;;;;;25.50;36.99;99979.94;4476759;32;33618;-55
2021/04/15 06:35:06;;;;;;;7.03;1.70;;;;;;;25.46;37.08;99981.50;4481020;32;33806;-54
2021/04/15 06:37:38;;;;;;;4.68;1.55;;;;;;;25.45;37.14;99971.63;4468195;32;34521;-55
2021/04/15 06:40:47;;;;;;;10.65;1.70;;;;;;;25.45;37.17;99979.81;4481260;32;33099;-57
2021/04/15 06:43:40;;;;;;;3.70;1.48;;;;;;;25.46;37.22;99976.03;4474364;32;33754;-54
2021/04/15 06:46:22;;;;;;;9.02;2.08;;;;;;;25.41;37.18;99968.53;4479800;32;33898;-49
2021/04/15 06:48:55;;;;;;;12.63;2.17;;;;;;;25.36;37.26;99973.84;4481224;32;33716;-51
2021/04/15 06:51:39;;;;;;;7.53;1.77;;;;;;;25.34;37.21;99980.63;4470095;32;34339;-54
2021/04/15 06:54:31;;;;;;;7.25;1.77;;;;;;;25.31;37.30;99976.47;4465433;32;34653;-54
2021/04/15 06:57:11;;;;;;;12.68;1.98;;;;;;;25.27;37.36;99983.47;4468686;32;33755;-48
2021/04/15 07:00:06;;;;;;;8.90;1.90;;;;;;;25.25;37.33;99982.03;4460035;32;34687;-50
2021/04/15 07:02:46;;;;;;;10.77;2.05;;;;;;;25.21;37.49;99975.38;4481039;32;33263;-53
2021/04/15 07:05:18;;;;;;;8.57;2.10;;;;;;;25.16;37.50;99978.81;4475136;32;33762;-55
2021/04/15 07:08:30;;;;;;;7.45;1.98;;;;;;;25.11;37.59;99982.25;4470394;32;33660;-53
2021/04/15 07:11:33;;;;;;;11.73;2.40;;;;;;;25.12;37.68;99978.44;4472463;31;33706;-51
2021/04/15 07:14:13;;;;;;;7.55;1.67;;;;;;;25.09;37.81;99986.28;4465726;32;33096;-54
2021/04/15 07:16:59;;;;;;;6.53;1.90;;;;;;;25.02;38.00;99980.06;4476339;32;33849;-53
2021/04/15 07:20:07;;;;;;;9.00;1.73;;;;;;;25.00;38.02;99977.56;4483050;32;33942;-51
2021/04/15 07:22:41;;;;;;;5.70;1.77;;;;;;;24.97;38.10;99997.12;4476104;32;33577;-52
2021/04/15 07:25:20;;;;;;;6.97;1.90;;;;;;;24.90;38.23;99991.78;4467558;32;33766;-55
2021/04/15 07:28:08;;;;;;;7.77;2.07;;;;;;;24.89;38.27;99989.25;4468885;32;33560;-52
2021/04/15 07:31:04;;;;;;;7.75;1.87;;;;;;;24.86;38.37;99987.84;4467280;32;33876;-53
2021/04/15 07:33:50;;;;;;;6.60;1.62;;;;;;;24.81;38.48;99990.44;4417643;32;33330;-51
2021/04/15 07:36:27;;;;;;;8.82;1.70;;;;;;;24.79;38.58;99997.16;4477594;32;33239;-51
2021/04/15 07:38:54;;;;;;;5.43;1.65;;;;;;;24.75;38.63;99993.22;4483240;32;33774;-51
2021/04/15 07:41:40;;;;;;;6.60;1.58;;;;;;;24.69;38.73;99993.09;4482695;32;33644;-50
2021/04/15 07:44:16;;;;;;;11.57;1.83;;;;;;;24.71;38.69;99995.59;4467389;32;34478;-52
2021/04/15 07:47:05;;;;;;;7.93;1.83;;;;;;;24.66;38.88;100004.47;4468654;32;33370;-50
2021/04/15 07:49:47;;;;;;;9.00;1.60;;;;;;;24.64;38.95;100003.88;4468365;32;33951;-49
2021/04/15 07:52:51;;;;;;;7.25;1.73;;;;;;;24.59;39.05;99998.28;4478448;32;33896;-49
2021/04/15 07:55:56;;;;;;;5.43;1.40;;;;;;;24.59;38.98;100006.44;4457969;32;33499;-50
2021/04/15 07:58:54;;;;;;;7.22;1.65;;;;;;;24.57;39.00;99994.91;4456242;32;33247;-50
2021/04/15 08:01:41;;;;;;;7.00;1.60;;;;;;;24.56;39.07;100003.34;4468601;32;33492;-50
2021/04/15 08:04:30;;;;;;;9.18;1.55;;;;;;;24.55;39.07;100007.13;4456131;31;33955;-49
2021/04/15 08:07:16;;;;;;;6.57;1.45;;;;;;;24.55;39.09;100005.25;4482392;32;34412;-53
2021/04/15 08:09:49;;;;;;;7.10;1.37;;;;;;;24.49;39.14;100000.72;4479288;32;34284;-52
2021/04/15 08:12:42;;;;;;;5.75;1.58;;;;;;;24.44;39.26;100006.03;4481654;32;34681;-52
2021/04/15 08:15:19;;;;;;;8.93;1.65;;;;;;;24.42;39.28;100002.66;4467182;32;33788;-49
2021/04/15 08:18:17;;;;;;;8.18;1.73;;;;;;;24.38;39.32;100007.75;4467402;32;34595;-50
2021/04/15 08:21:07;;;;;;;9.02;1.70;;;;;;;24.37;38.99;100016.16;4475855;32;34035;-52
2021/04/15 08:24:31;;;;;;;10.20;1.70;;;;;;;24.33;39.36;100012.19;4481470;32;34497;-51
2021/04/15 08:27:30;;;;;;;4.68;1.48;;;;;;;24.32;39.44;100018.72;4480867;32;33908;-52
2021/04/15 08:30:07;;;;;;;7.78;1.60;;;;;;;24.30;39.19;100013.50;4482679;32;34495;-49
2021/04/15 08:32:58;;;;;;;7.47;1.48;;;;;;;24.27;39.44;100027.56;4481740;32;33985;-59
2021/04/15 08:35:34;;;;;;;9.10;2.17;;;;;;;24.25;39.63;100012.47;4474272;32;35409;-57
2021/04/15 08:38:17;;;;;;;9.35;1.60;;;;;;;24.24;39.61;100027.19;4474966;32;33965;-52
2021/04/15 08:40:53;;;;;;;6.43;1.50;;;;;;;24.21;39.55;100022.19;4470316;32;33988;-55
2021/04/15 08:43:37;;;;;;;7.28;2.12;;;;;;;24.20;39.54;100021.34;4485761;31;34066;-53
2021/04/15 08:46:41;;;;;;;7.62;2.15;;;;;;;24.18;39.36;100023.47;4479476;32;34074;-49
2021/04/15 08:49:15;;;;;;;7.25;1.87;;;;;;;24.19;39.31;100016.94;4468227;32;33916;-49
2021/04/15 08:52:19;;;;;;;7.62;1.70;;;;;;;24.13;39.42;100021.41;4481620;32;34376;-49
2021/04/15 08:54:58;;;;;;;7.75;1.70;;;;;;;24.16;39.33;100020.97;4467232;31;33233;-53
2021/04/15 08:57:54;;;;;;;7.47;1.50;;;;;;;24.12;39.37;100021.66;4475322;32;33748;-49
2021/04/15 09:00:26;;;;;;;5.03;1.27;;;;;;;24.12;39.38;100018.94;4457433;32;33817;-52
2021/04/15 09:03:04;;;;;;;6.70;1.58;;;;;;;24.10;39.37;100026.50;4482341;32;33294;-51
2021/04/15 09:06:09;;;;;;;6.90;2.10;;;;;;;24.11;39.35;100022.72;4482550;32;34295;-51
2021/04/15 09:09:04;;;;;;;5.35;1.48;;;;;;;24.10;39.50;100019.13;4483404;32;33546;-54
2021/04/15 09:12:00;;;;;;;7.90;2.17;;;;;;;24.08;39.53;100026.72;4483746;32;33821;-54
2021/04/15 09:14:50;;;;;;;6.47;1.73;;;;;;;24.07;39.56;100021.50;4442519;32;33464;-54
2021/04/15 09:17:25;;;;;;;5.72;1.83;;;;;;;24.06;39.58;100023.41;4468040;32;33169;-53
2021/04/15 09:20:21;;;;;;;8.70;1.80;;;;;;;24.03;39.67;100031.19;4480775;32;33804;-57
2021/04/15 09:23:07;;;;;;;7.32;1.70;;;;;;;24.03;39.65;100029.28;4481210;32;34819;-54
2021/04/15 09:25:47;;;;;;;5.90;1.60;;;;;;;24.01;39.63;100025.94;4482435;32;33800;-55
2021/04/15 09:28:49;;;;;;;4.12;1.45;;;;;;;24.01;39.69;100022.38;4482231;32;34543;-56
2021/04/15 09:31:50;;;;;;;3.78;1.15;;;;;;;24.02;39.68;100029.53;4483559;32;33436;-55
2021/04/15 09:34:40;;;;;;;3.92;1.33;;;;;;;23.98;39.73;100015.50;4483653;32;33706;-55
2021/04/15 09:37:16;;;;;;;6.90;1.65;;;;;;;23.96;39.72;100027.69;4481449;32;33722;-54
2021/04/15 09:39:52;;;;;;;5.15;1.70;;;;;;;23.96;39.76;100031.22;4483237;32;33266;-53
2021/04/15 09:42:43;;;;;;;7.57;1.60;;;;;;;23.95;39.85;100028.75;4483112;32;35181;-51
2021/04/15 09:45:13;;;;;;;3.85;1.10;;;;;;;23.96;39.76;100019.50;4482069;32;33696;-53
2021/04/15 09:47:48;;;;;;;10.80;1.60;;;;;;;23.93;39.81;100029.81;4483445;32;33637;-54
2021/04/15 09:50:25;;;;;;;4.22;1.15;;;;;;;23.91;39.87;100029.19;4481768;32;33433;-55
2021/04/15 09:53:04;;;;;;;6.47;1.60;;;;;;;23.92;39.85;100024.56;4481605;32;34674;-52
2021/04/15 09:56:09;;;;;;;5.85;1.30;;;;;;;23.92;39.87;100025.41;4482291;32;33648;-48
2021/04/15 09:59:00;;;;;;;7.47;1.42;;;;;;;23.92;39.92;100019.97;4482151;32;33889;-53
2021/04/15 10:01:30;;;;;;;4.25;1.23;;;;;;;23.88;39.95;100018.75;4472154;31;33117;-53
2021/04/15 10:04:13;;;;;;;6.62;1.77;;;;;;;23.89;39.94;100022.31;4468621;32;34614;-52
2021/04/15 10:07:09;;;;;;;3.78;1.30;;;;;;;23.89;39.88;100020.41;4481702;32;34685;-51
2021/04/15 10:09:58;;;;;;;5.60;1.58;;;;;;;23.89;39.88;100006.78;4469722;32;34447;-54
2021/04/15 10:12:52;;;;;;;7.22;1.60;;;;;;;23.89;39.92;100011.41;4469307;32;33203;-54
2021/04/15 10:15:42;;;;;;;5.80;1.42;;;;;;;23.87;39.97;100014.34;4481847;32;34562;-51
2021/04/15 10:18:47;;;;;;;5.72;1.50;;;;;;;23.86;40.03;100007.22;4482797;32;35010;-55
2021/04/15 10:21:17;;;;;;;6.43;1.40;;;;;;;23.86;40.10;99998.22;4482881;32;33753;-55
2021/04/15 10:23:59;;;;;;;8.13;1.60;;;;;;;23.81;40.17;100000.78;4482984;32;33382;-49
2021/04/15 10:26:27;;;;;;;6.50;1.87;;;;;;;23.82;40.13;100002.44;4470393;32;33641;-53
2021/04/15 10:29:00;;;;;;;6.18;1.48;;;;;;;23.80;40.25;100001.84;4482786;32;33904;-51
2021/04/15 10:31:55;;;;;;;5.82;1.62;;;;;;;23.79;40.12;100001.03;4481559;32;33724;-54
2021/04/15 10:34:47;;;;;;;8.30;1.90;;;;;;;23.81;39.99;99990.72;4482543;31;33857;-51
2021/04/15 10:37:28;;;;;;;7.80;1.85;;;;;;;23.81;39.95;99998.06;4484758;32;33856;-53
2021/04/15 10:40:33;;;;;;;6.10;1.70;;;;;;;23.78;40.01;99988.47;4484952;32;33479;-52
2021/04/15 10:43:22;;;;;;;8.77;1.40;;;;;;;23.77;39.96;99999.56;4470841;32;34655;-49
2021/04/15 10:46:14;;;;;;;5.53;1.37;;;;;;;23.73;39.94;100003.78;4485266;32;33465;-48
2021/04/15 10:49:13;;;;;;;11.00;1.67;;;;;;;23.75;39.86;99998.97;4484611;32;34934;-48
2021/04/15 10:51:51;;;;;;;6.43;1.50;;;;;;;23.73;39.95;99998.34;4484622;31;34617;-53
2021/04/15 10:54:26;;;;;;;10.20;1.92;;;;;;;23.72;39.89;99989.34;4470700;32;33754;-53
2021/04/15 10:57:02;;;;;;;9.98;1.73;;;;;;;23.71;40.04;99986.84;4470938;32;32914;-52
2021/04/15 10:59:49;;;;;;;7.18;1.45;;;;;;;23.73;40.00;99982.81;4484307;32;33994;-51
2021/04/15 11:02:47;;;;;;;8.07;1.65;;;;;;;23.72;40.01;99980.34;4468818;32;33983;-52
2021/04/15 11:05:27;;;;;;;12.00;2.28;;;;;;;23.71;39.96;99976.78;4468849;32;33637;-52
2021/04/15 11:07:56;;;;;;;8.57;1.62;;;;;;;23.71;40.07;99974.06;4468852;32;33257;-51
2021/04/15 11:10:29;;;;;;;7.25;1.85;;;;;;;23.71;40.08;99984.13;4480752;32;33821;-51
2021/04/15 11:13:25;;;;;;;4.85;1.50;;;;;;;23.68;40.09;100005.28;4467531;32;33838;-54
2021/04/15 11:15:54;;;;;;;8.80;2.03;;;;;;;23.71;40.02;99995.00;4468753;32;35202;-55
2021/04/15 11:18:25;;;;;;;6.68;1.42;;;;;;;23.67;40.25;99997.34;4482476;32;34225;-53
2021/04/15 11:21:10;;;;;;;5.15;1.30;;;;;;;23.66;40.11;99998.41;4483383;32;33647;-55
2021/04/15 11:23:37;;;;;;;5.20;1.75;;;;;;;23.66;40.16;99998.41;4483435;32;34483;-51
2021/04/15 11:26:16;;;;;;;2.78;1.17;;;;;;;23.65;40.18;100003.03;4483303;32;33678;-52
2021/04/15 11:28:44;;;;;;;7.37;1.55;;;;;;;23.67;40.13;100003.63;4482876;32;33212;-48
2021/04/15 11:31:13;;;;;;;5.85;1.40;;;;;;;23.65;40.16;99986.69;4484606;32;33773;-55
2021/04/15 11:33:51;;;;;;;5.68;1.37;;;;;;;23.66;40.17;99996.50;4484701;32;33573;-58
2021/04/15 11:36:22;;;;;;;6.22;1.62;;;;;;;23.65;40.24;100004.91;4483019;32;33953;-58
2021/04/15 11:39:10;;;;;;;6.72;1.70;;;;;;;23.63;40.06;99994.19;4483405;32;33061;-55
2021/04/15 11:42:02;;;;;;;2.90;1.33;;;;;;;23.61;40.16;99995.50;4480727;32;33764;-52
2021/04/15 11:44:36;;;;;;;5.07;1.20;;;;;;;23.62;40.08;99989.81;4476384;32;33565;-53
2021/04/15 11:47:24;;;;;;;6.68;1.40;;;;;;;23.60;40.09;99975.59;4481708;32;33732;-58
2021/04/15 11:49:52;;;;;;;8.20;1.52;;;;;;;23.59;40.05;99994.88;4469461;32;34116;-58
2021/04/15 11:52:19;;;;;;;7.50;1.80;;;;;;;23.54;40.06;99995.53;4484320;31;33870;-55
2021/04/15 11:54:52;;;;;;;7.93;1.60;;;;;;;23.55;40.05;99986.34;4484460;32;33589;-57
2021/04/15 11:57:19;;;;;;;8.45;2.12;;;;;;;23.53;40.05;99993.87;4484433;32;33672;-57
2021/04/15 11:59:55;;;;;;;5.40;1.62;;;;;;;23.52;40.03;99992.22;4483785;32;33018;-58
2021/04/15 12:02:32;;;;;;;6.05;1.50;;;;;;;23.50;40.04;99985.31;4484406;32;33637;-57
2021/04/15 12:05:11;;;;;;;3.62;1.15;;;;;;;23.50;40.03;99988.03;4484418;32;34895;-56
2021/04/15 12:07:38;;;;;;;5.37;1.40;;;;;;;23.46;40.03;99981.38;4484262;32;34506;-63
2021/04/15 12:10:06;;;;;;;6.12;1.55;;;;;;;23.47;39.96;99991.22;4470028;32;33226;-55
2021/04/15 12:12:46;;;;;;;14.40;2.15;;;;;;;23.47;39.85;99978.44;4471875;32;34675;-58
2021/04/15 12:15:16;;;;;;;9.68;2.08;;;;;;;23.45;39.79;99977.81;4470406;32;33890;-58
2021/04/15 12:18:02;;;;;;;8.23;1.92;;;;;;;23.44;39.68;99981.59;4483122;32;34050;-55
2021/04/15 12:20:50;;;;;;;9.73;1.70;;;;;;;23.44;39.69;99976.13;4483216;32;33277;-57
2021/04/15 12:23:24;;;;;;;7.72;1.67;;;;;;;23.45;39.68;99980.53;4470356;32;33724;-55
2021/04/15 12:26:26;;;;;;;6.22;1.67;;;;;;;23.43;39.71;99982.66;4484061;32;33779;-51
2021/04/15 12:29:07;;;;;;;8.38;1.90;;;;;;;23.42;39.76;99979.09;4482835;32;33849;-54